PWSweather.com
Personal Weather Stations
Station Observations
EW7135
Hopkinton, MA 01748

Hopkinton, MA 01748

Lat: 42.2281651, Lon: -71.54263960000003

Elevation: 354

Station Type: Davis Pro 2

Latest ConditionsUpdated 5:45:00 AM EST Wednesday, Nov 21, 2018
Currently Today's Max Today's Min Today's Average
Temperature 28.8°F-1.8°C 31.7°F-0.2°C 27.0°F-2.8°C 29.4°F-1.4°C
Dew Point 26.0°F-3.3°C 30.2°F-1.0°C 25.1°F-3.8°C 26.1°F-3.3°C
Winds Calm Calm 2.0 mph -3.2 kmh - - 0.5 mph 0.8 kmh
Wind Gusts 1.0 mph1.6 kmh 12.0 mph19.3 kmh - -
Humidity 89% 94% 79% 87%
Pressure 30.04 in1017.3 mb 30.04 in1017.3 mb 30.01 in1016.3 mb -
Hour Temp Dew Point Humidity Winds Wind Gusts Pressure Precip Precip Rate Daily Precip Total
05:45 AM 28.8°F-1.8°C 26.0°F-3.3°C 89% Calm Calm 1.0 mph1.6 kmh 30.04 in1017.3 mb 0.00 in0.0 mm 0.00 in0.0 mm 0.00 in0.0 mm
05:30 AM 28.9°F-1.7°C 26.6°F-3.0°C 91% Calm Calm 1.0 mph1.6 kmh 30.04 in1017.3 mb 0.00 in0.0 mm 0.00 in0.0 mm 0.00 in0.0 mm
05:15 AM 28.4°F-2.0°C 26.1°F-3.3°C 91% 1.0 mph S1.6 kmh S 4.0 mph6.4 kmh 30.04 in1017.3 mb 0.00 in0.0 mm 0.00 in0.0 mm 0.00 in0.0 mm
05:00 AM 28.1°F-2.2°C 26.3°F-3.2°C 93% Calm Calm -- 30.04 in1017.3 mb 0.00 in0.0 mm 0.00 in0.0 mm 0.00 in0.0 mm
04:45 AM 27.7°F-2.4°C 26.2°F-3.2°C 94% Calm Calm -- 30.04 in1017.3 mb 0.00 in0.0 mm 0.00 in0.0 mm 0.00 in0.0 mm
04:30 AM 27.2°F-2.7°C 25.7°F-3.5°C 94% Calm Calm -- 30.04 in1017.3 mb 0.00 in0.0 mm 0.00 in0.0 mm 0.00 in0.0 mm
04:15 AM 27.0°F-2.8°C 25.2°F-3.8°C 93% Calm Calm -- 30.04 in1017.3 mb 0.00 in0.0 mm 0.00 in0.0 mm 0.00 in0.0 mm
04:00 AM 27.1°F-2.7°C 25.3°F-3.7°C 93% Calm Calm -- 30.03 in1016.9 mb 0.00 in0.0 mm 0.00 in0.0 mm 0.00 in0.0 mm
03:45 AM 27.3°F-2.6°C 25.5°F-3.6°C 93% Calm Calm -- 30.03 in1016.9 mb 0.00 in0.0 mm 0.00 in0.0 mm 0.00 in0.0 mm
03:30 AM 27.5°F-2.5°C 25.5°F-3.6°C 92% Calm Calm -- 30.02 in1016.6 mb 0.00 in0.0 mm 0.00 in0.0 mm 0.00 in0.0 mm
03:15 AM 27.9°F-2.3°C 25.6°F-3.6°C 91% Calm Calm -- 30.02 in1016.6 mb 0.00 in0.0 mm 0.00 in0.0 mm 0.00 in0.0 mm
03:00 AM 28.7°F-1.8°C 25.9°F-3.4°C 89% Calm Calm -- 30.02 in1016.6 mb 0.00 in0.0 mm 0.00 in0.0 mm 0.00 in0.0 mm
02:45 AM 29.4°F-1.4°C 25.7°F-3.5°C 86% Calm Calm -- 30.02 in1016.6 mb 0.00 in0.0 mm 0.00 in0.0 mm 0.00 in0.0 mm
02:30 AM 30.2°F-1.0°C 25.7°F-3.5°C 83% Calm Calm -- 30.03 in1016.9 mb 0.00 in0.0 mm 0.00 in0.0 mm 0.00 in0.0 mm
02:15 AM 30.6°F-0.8°C 25.2°F-3.8°C 80% 1.0 mph SW1.6 kmh SW 7.0 mph11.3 kmh 30.03 in1016.9 mb 0.00 in0.0 mm 0.00 in0.0 mm 0.00 in0.0 mm
02:00 AM 30.6°F-0.8°C 25.5°F-3.6°C 81% 1.0 mph SW1.6 kmh SW 5.0 mph8.0 kmh 30.03 in1016.9 mb 0.00 in0.0 mm 0.00 in0.0 mm 0.00 in0.0 mm
01:45 AM 30.8°F-0.7°C 25.1°F-3.8°C 79% Calm Calm 3.0 mph4.8 kmh 30.02 in1016.6 mb 0.00 in0.0 mm 0.00 in0.0 mm 0.00 in0.0 mm
01:30 AM 31.2°F-0.4°C 25.7°F-3.5°C 80% 2.0 mph WSW3.2 kmh WSW 8.0 mph12.9 kmh 30.02 in1016.6 mb 0.00 in0.0 mm 0.00 in0.0 mm 0.00 in0.0 mm
01:15 AM 31.1°F-0.5°C 25.3°F-3.7°C 79% 1.0 mph NW1.6 kmh NW 6.0 mph9.7 kmh 30.02 in1016.6 mb 0.00 in0.0 mm 0.00 in0.0 mm 0.00 in0.0 mm
01:00 AM 31.1°F-0.5°C 26.0°F-3.3°C 81% 1.0 mph WSW1.6 kmh WSW 9.0 mph14.5 kmh 30.02 in1016.6 mb 0.00 in0.0 mm 0.00 in0.0 mm 0.00 in0.0 mm
12:45 AM 31.3°F-0.4°C 26.1°F-3.3°C 81% 1.0 mph WNW1.6 kmh WNW 12.0 mph19.3 kmh 30.01 in1016.3 mb 0.00 in0.0 mm 0.00 in0.0 mm 0.00 in0.0 mm
12:30 AM 31.7°F-0.2°C 27.1°F-2.7°C 83% 2.0 mph WSW3.2 kmh WSW 9.0 mph14.5 kmh 30.01 in1016.3 mb 0.00 in0.0 mm 0.00 in0.0 mm 0.00 in0.0 mm
12:15 AM 31.4°F-0.3°C 28.5°F-1.9°C 89% 1.0 mph NW1.6 kmh NW 7.0 mph11.3 kmh 30.01 in1016.3 mb 0.00 in0.0 mm 0.00 in0.0 mm 0.00 in0.0 mm
12:00 AM 31.7°F-0.2°C 30.2°F-1.0°C 94% Calm Calm -- 30.01 in1016.3 mb 0.00 in0.0 mm 0.00 in0.0 mm 0.00 in0.0 mm